sensor_id;sensor_type;location;lat;lon;timestamp;P1;durP1;ratioP1;P2;durP2;ratioP2
11394;SDS011;5753;54.402;10.220;2023-12-07T00:00:41;124.55;;;58.92;;
11394;SDS011;5753;54.402;10.220;2023-12-07T00:03:08;93.55;;;50.63;;
11394;SDS011;5753;54.402;10.220;2023-12-07T00:05:34;112.40;;;47.47;;
11394;SDS011;5753;54.402;10.220;2023-12-07T00:08:00;86.68;;;47.08;;
11394;SDS011;5753;54.402;10.220;2023-12-07T00:10:26;106.22;;;57.67;;
11394;SDS011;5753;54.402;10.220;2023-12-07T00:12:53;118.63;;;56.97;;
11394;SDS011;5753;54.402;10.220;2023-12-07T00:15:19;114.75;;;60.72;;
11394;SDS011;5753;54.402;10.220;2023-12-07T00:17:45;94.55;;;51.72;;
11394;SDS011;5753;54.402;10.220;2023-12-07T00:20:11;117.63;;;57.67;;
11394;SDS011;5753;54.402;10.220;2023-12-07T00:22:37;100.20;;;50.33;;
11394;SDS011;5753;54.402;10.220;2023-12-07T00:25:03;116.57;;;54.42;;
11394;SDS011;5753;54.402;10.220;2023-12-07T00:27:30;110.53;;;55.75;;
11394;SDS011;5753;54.402;10.220;2023-12-07T00:29:57;98.28;;;50.55;;
11394;SDS011;5753;54.402;10.220;2023-12-07T00:32:23;144.73;;;55.75;;
11394;SDS011;5753;54.402;10.220;2023-12-07T00:34:50;121.30;;;56.72;;
11394;SDS011;5753;54.402;10.220;2023-12-07T00:37:16;126.13;;;61.88;;
11394;SDS011;5753;54.402;10.220;2023-12-07T00:39:43;122.18;;;59.53;;
11394;SDS011;5753;54.402;10.220;2023-12-07T00:42:09;113.60;;;57.88;;
11394;SDS011;5753;54.402;10.220;2023-12-07T00:44:38;138.85;;;55.78;;
11394;SDS011;5753;54.402;10.220;2023-12-07T00:47:05;131.20;;;67.05;;
11394;SDS011;5753;54.402;10.220;2023-12-07T00:49:32;131.68;;;61.83;;
11394;SDS011;5753;54.402;10.220;2023-12-07T00:51:58;134.00;;;58.17;;
11394;SDS011;5753;54.402;10.220;2023-12-07T00:54:24;133.50;;;61.53;;
11394;SDS011;5753;54.402;10.220;2023-12-07T00:56:50;133.57;;;61.53;;
11394;SDS011;5753;54.402;10.220;2023-12-07T00:59:17;154.80;;;61.33;;
11394;SDS011;5753;54.402;10.220;2023-12-07T01:01:43;121.78;;;55.33;;
11394;SDS011;5753;54.402;10.220;2023-12-07T01:04:09;126.72;;;55.28;;
11394;SDS011;5753;54.402;10.220;2023-12-07T01:06:35;116.95;;;57.15;;
11394;SDS011;5753;54.402;10.220;2023-12-07T01:09:02;137.07;;;60.10;;
11394;SDS011;5753;54.402;10.220;2023-12-07T01:11:28;168.50;;;60.55;;
11394;SDS011;5753;54.402;10.220;2023-12-07T01:13:55;126.55;;;53.63;;
11394;SDS011;5753;54.402;10.220;2023-12-07T01:16:21;126.03;;;54.03;;
11394;SDS011;5753;54.402;10.220;2023-12-07T01:18:47;164.27;;;70.15;;
11394;SDS011;5753;54.402;10.220;2023-12-07T01:21:13;130.00;;;58.15;;
11394;SDS011;5753;54.402;10.220;2023-12-07T01:23:39;139.18;;;54.88;;
11394;SDS011;5753;54.402;10.220;2023-12-07T01:26:05;149.70;;;61.63;;
11394;SDS011;5753;54.402;10.220;2023-12-07T01:28:32;170.20;;;65.22;;
11394;SDS011;5753;54.402;10.220;2023-12-07T01:30:58;147.40;;;59.13;;
11394;SDS011;5753;54.402;10.220;2023-12-07T01:33:25;134.45;;;52.58;;
11394;SDS011;5753;54.402;10.220;2023-12-07T01:35:51;134.80;;;58.78;;
11394;SDS011;5753;54.402;10.220;2023-12-07T01:38:17;154.45;;;64.32;;
11394;SDS011;5753;54.402;10.220;2023-12-07T01:40:44;175.05;;;66.18;;
11394;SDS011;5753;54.402;10.220;2023-12-07T01:43:10;123.07;;;50.53;;
11394;SDS011;5753;54.402;10.220;2023-12-07T01:45:36;174.23;;;68.75;;
11394;SDS011;5753;54.402;10.220;2023-12-07T01:48:02;135.10;;;54.83;;
11394;SDS011;5753;54.402;10.220;2023-12-07T01:50:29;141.70;;;55.03;;
11394;SDS011;5753;54.402;10.220;2023-12-07T01:53:02;146.65;;;60.85;;
11394;SDS011;5753;54.402;10.220;2023-12-07T01:55:29;156.68;;;58.40;;
11394;SDS011;5753;54.402;10.220;2023-12-07T01:57:57;155.23;;;49.97;;
11394;SDS011;5753;54.402;10.220;2023-12-07T02:00:24;211.52;;;63.38;;
11394;SDS011;5753;54.402;10.220;2023-12-07T02:02:52;164.25;;;58.53;;
11394;SDS011;5753;54.402;10.220;2023-12-07T02:05:18;178.13;;;61.67;;
11394;SDS011;5753;54.402;10.220;2023-12-07T02:07:45;147.88;;;49.92;;
11394;SDS011;5753;54.402;10.220;2023-12-07T02:10:11;149.82;;;59.47;;
11394;SDS011;5753;54.402;10.220;2023-12-07T02:12:38;170.60;;;60.22;;
11394;SDS011;5753;54.402;10.220;2023-12-07T02:15:05;165.77;;;58.60;;
11394;SDS011;5753;54.402;10.220;2023-12-07T02:17:33;177.63;;;62.47;;
11394;SDS011;5753;54.402;10.220;2023-12-07T02:20:05;172.45;;;51.70;;
11394;SDS011;5753;54.402;10.220;2023-12-07T02:23:01;179.45;;;57.00;;
11394;SDS011;5753;54.402;10.220;2023-12-07T02:25:31;219.77;;;71.22;;
11394;SDS011;5753;54.402;10.220;2023-12-07T02:28:06;188.73;;;65.35;;
11394;SDS011;5753;54.402;10.220;2023-12-07T02:30:32;127.68;;;50.20;;
11394;SDS011;5753;54.402;10.220;2023-12-07T02:32:58;165.18;;;61.45;;
11394;SDS011;5753;54.402;10.220;2023-12-07T02:35:24;184.57;;;59.47;;
11394;SDS011;5753;54.402;10.220;2023-12-07T02:37:51;173.55;;;60.10;;
11394;SDS011;5753;54.402;10.220;2023-12-07T02:40:20;147.23;;;57.55;;
11394;SDS011;5753;54.402;10.220;2023-12-07T02:42:49;179.82;;;60.83;;
11394;SDS011;5753;54.402;10.220;2023-12-07T02:45:17;141.38;;;51.47;;
11394;SDS011;5753;54.402;10.220;2023-12-07T02:47:43;125.90;;;43.15;;
11394;SDS011;5753;54.402;10.220;2023-12-07T02:50:10;133.38;;;57.55;;
11394;SDS011;5753;54.402;10.220;2023-12-07T02:52:37;141.52;;;50.00;;
11394;SDS011;5753;54.402;10.220;2023-12-07T02:55:03;128.50;;;51.28;;
11394;SDS011;5753;54.402;10.220;2023-12-07T02:57:30;147.65;;;55.83;;
11394;SDS011;5753;54.402;10.220;2023-12-07T02:59:59;136.93;;;57.58;;
11394;SDS011;5753;54.402;10.220;2023-12-07T03:02:26;134.43;;;59.10;;
11394;SDS011;5753;54.402;10.220;2023-12-07T03:04:52;124.85;;;56.53;;
11394;SDS011;5753;54.402;10.220;2023-12-07T03:07:18;123.97;;;49.42;;
11394;SDS011;5753;54.402;10.220;2023-12-07T03:09:44;125.68;;;57.92;;
11394;SDS011;5753;54.402;10.220;2023-12-07T03:12:10;120.55;;;55.00;;
11394;SDS011;5753;54.402;10.220;2023-12-07T03:14:37;120.88;;;51.75;;
11394;SDS011;5753;54.402;10.220;2023-12-07T03:17:03;131.73;;;61.60;;
11394;SDS011;5753;54.402;10.220;2023-12-07T03:19:29;142.55;;;62.83;;
11394;SDS011;5753;54.402;10.220;2023-12-07T03:21:55;156.70;;;63.75;;
11394;SDS011;5753;54.402;10.220;2023-12-07T03:24:21;138.50;;;61.70;;
11394;SDS011;5753;54.402;10.220;2023-12-07T03:26:47;141.63;;;58.72;;
11394;SDS011;5753;54.402;10.220;2023-12-07T03:29:13;131.65;;;53.20;;
11394;SDS011;5753;54.402;10.220;2023-12-07T03:31:39;126.72;;;53.75;;
11394;SDS011;5753;54.402;10.220;2023-12-07T03:34:05;122.65;;;62.60;;
11394;SDS011;5753;54.402;10.220;2023-12-07T03:36:32;158.23;;;67.65;;
11394;SDS011;5753;54.402;10.220;2023-12-07T03:38:58;123.68;;;61.33;;
11394;SDS011;5753;54.402;10.220;2023-12-07T03:41:24;117.30;;;53.63;;
11394;SDS011;5753;54.402;10.220;2023-12-07T03:43:50;136.07;;;54.40;;
11394;SDS011;5753;54.402;10.220;2023-12-07T03:46:16;130.02;;;56.33;;
11394;SDS011;5753;54.402;10.220;2023-12-07T03:48:43;130.35;;;52.50;;
11394;SDS011;5753;54.402;10.220;2023-12-07T03:51:12;133.43;;;56.70;;
11394;SDS011;5753;54.402;10.220;2023-12-07T03:53:39;120.78;;;48.05;;
11394;SDS011;5753;54.402;10.220;2023-12-07T03:56:06;132.80;;;67.38;;
11394;SDS011;5753;54.402;10.220;2023-12-07T03:58:32;120.97;;;57.13;;
11394;SDS011;5753;54.402;10.220;2023-12-07T04:00:58;104.70;;;51.72;;
11394;SDS011;5753;54.402;10.220;2023-12-07T04:03:24;107.10;;;51.33;;
11394;SDS011;5753;54.402;10.220;2023-12-07T04:05:50;109.40;;;53.88;;
11394;SDS011;5753;54.402;10.220;2023-12-07T04:08:17;124.05;;;53.92;;
11394;SDS011;5753;54.402;10.220;2023-12-07T04:10:43;119.55;;;55.47;;
11394;SDS011;5753;54.402;10.220;2023-12-07T04:13:09;100.43;;;56.55;;
11394;SDS011;5753;54.402;10.220;2023-12-07T04:15:35;115.85;;;56.13;;
11394;SDS011;5753;54.402;10.220;2023-12-07T04:18:01;117.70;;;58.45;;
11394;SDS011;5753;54.402;10.220;2023-12-07T04:20:27;129.25;;;58.72;;
11394;SDS011;5753;54.402;10.220;2023-12-07T04:22:53;107.10;;;52.40;;
11394;SDS011;5753;54.402;10.220;2023-12-07T04:25:20;114.97;;;56.67;;
11394;SDS011;5753;54.402;10.220;2023-12-07T04:27:47;122.50;;;52.78;;
11394;SDS011;5753;54.402;10.220;2023-12-07T04:30:13;130.57;;;58.00;;
11394;SDS011;5753;54.402;10.220;2023-12-07T04:32:39;134.95;;;60.53;;
11394;SDS011;5753;54.402;10.220;2023-12-07T04:35:06;123.20;;;56.10;;
11394;SDS011;5753;54.402;10.220;2023-12-07T04:37:33;120.60;;;54.70;;
11394;SDS011;5753;54.402;10.220;2023-12-07T04:39:59;124.80;;;57.78;;
11394;SDS011;5753;54.402;10.220;2023-12-07T04:42:26;105.30;;;55.42;;
11394;SDS011;5753;54.402;10.220;2023-12-07T04:44:52;111.65;;;60.38;;
11394;SDS011;5753;54.402;10.220;2023-12-07T04:47:18;106.18;;;51.20;;
11394;SDS011;5753;54.402;10.220;2023-12-07T04:49:44;113.70;;;52.58;;
11394;SDS011;5753;54.402;10.220;2023-12-07T04:52:10;134.00;;;62.95;;
11394;SDS011;5753;54.402;10.220;2023-12-07T04:54:36;109.72;;;55.10;;
11394;SDS011;5753;54.402;10.220;2023-12-07T04:57:03;112.82;;;53.30;;
11394;SDS011;5753;54.402;10.220;2023-12-07T04:59:29;126.00;;;66.22;;
11394;SDS011;5753;54.402;10.220;2023-12-07T05:01:55;127.03;;;57.15;;
11394;SDS011;5753;54.402;10.220;2023-12-07T05:04:21;97.53;;;57.25;;
11394;SDS011;5753;54.402;10.220;2023-12-07T05:06:47;109.72;;;55.00;;
11394;SDS011;5753;54.402;10.220;2023-12-07T05:09:13;101.72;;;55.55;;
11394;SDS011;5753;54.402;10.220;2023-12-07T05:11:40;122.30;;;61.10;;
11394;SDS011;5753;54.402;10.220;2023-12-07T05:14:06;112.63;;;49.72;;
11394;SDS011;5753;54.402;10.220;2023-12-07T05:16:32;130.15;;;56.92;;
11394;SDS011;5753;54.402;10.220;2023-12-07T05:18:58;113.72;;;55.30;;
11394;SDS011;5753;54.402;10.220;2023-12-07T05:21:24;102.68;;;52.05;;
11394;SDS011;5753;54.402;10.220;2023-12-07T05:23:50;96.50;;;52.10;;
11394;SDS011;5753;54.402;10.220;2023-12-07T05:26:17;110.50;;;57.50;;
11394;SDS011;5753;54.402;10.220;2023-12-07T05:28:43;105.20;;;53.17;;
11394;SDS011;5753;54.402;10.220;2023-12-07T05:31:14;121.13;;;55.60;;
11394;SDS011;5753;54.402;10.220;2023-12-07T05:33:41;130.83;;;68.30;;
11394;SDS011;5753;54.402;10.220;2023-12-07T05:36:08;113.65;;;53.33;;
11394;SDS011;5753;54.402;10.220;2023-12-07T05:38:35;114.07;;;52.85;;
11394;SDS011;5753;54.402;10.220;2023-12-07T05:41:01;99.50;;;53.15;;
11394;SDS011;5753;54.402;10.220;2023-12-07T05:43:28;124.97;;;57.10;;
11394;SDS011;5753;54.402;10.220;2023-12-07T05:45:54;107.30;;;55.92;;
11394;SDS011;5753;54.402;10.220;2023-12-07T05:48:20;114.68;;;59.70;;
11394;SDS011;5753;54.402;10.220;2023-12-07T05:50:46;106.97;;;57.95;;
11394;SDS011;5753;54.402;10.220;2023-12-07T05:53:12;96.75;;;56.15;;
11394;SDS011;5753;54.402;10.220;2023-12-07T05:55:38;100.55;;;53.45;;
11394;SDS011;5753;54.402;10.220;2023-12-07T05:58:04;106.45;;;53.70;;
11394;SDS011;5753;54.402;10.220;2023-12-07T06:00:30;108.15;;;57.00;;
11394;SDS011;5753;54.402;10.220;2023-12-07T06:02:57;112.07;;;57.58;;
11394;SDS011;5753;54.402;10.220;2023-12-07T06:05:23;105.78;;;50.42;;
11394;SDS011;5753;54.402;10.220;2023-12-07T06:07:49;124.70;;;56.13;;
11394;SDS011;5753;54.402;10.220;2023-12-07T06:10:15;102.13;;;47.50;;
11394;SDS011;5753;54.402;10.220;2023-12-07T06:12:41;107.15;;;51.40;;
11394;SDS011;5753;54.402;10.220;2023-12-07T06:15:08;121.05;;;56.45;;
11394;SDS011;5753;54.402;10.220;2023-12-07T06:17:34;127.97;;;59.00;;
11394;SDS011;5753;54.402;10.220;2023-12-07T06:20:01;120.10;;;55.20;;
11394;SDS011;5753;54.402;10.220;2023-12-07T06:22:28;116.72;;;58.13;;
11394;SDS011;5753;54.402;10.220;2023-12-07T06:24:54;102.40;;;52.92;;
11394;SDS011;5753;54.402;10.220;2023-12-07T06:27:21;110.75;;;55.28;;
11394;SDS011;5753;54.402;10.220;2023-12-07T06:29:47;108.70;;;51.50;;
11394;SDS011;5753;54.402;10.220;2023-12-07T06:32:14;110.20;;;55.63;;
11394;SDS011;5753;54.402;10.220;2023-12-07T06:34:41;112.22;;;48.40;;
11394;SDS011;5753;54.402;10.220;2023-12-07T06:37:07;98.15;;;51.33;;
11394;SDS011;5753;54.402;10.220;2023-12-07T06:39:35;102.07;;;51.13;;
11394;SDS011;5753;54.402;10.220;2023-12-07T06:42:02;112.38;;;51.90;;
11394;SDS011;5753;54.402;10.220;2023-12-07T06:44:28;115.95;;;56.05;;
11394;SDS011;5753;54.402;10.220;2023-12-07T06:46:54;107.63;;;58.47;;
11394;SDS011;5753;54.402;10.220;2023-12-07T06:49:20;127.93;;;56.67;;
11394;SDS011;5753;54.402;10.220;2023-12-07T06:51:47;114.68;;;56.20;;
11394;SDS011;5753;54.402;10.220;2023-12-07T06:54:14;97.47;;;48.90;;
11394;SDS011;5753;54.402;10.220;2023-12-07T06:56:40;112.20;;;59.17;;
11394;SDS011;5753;54.402;10.220;2023-12-07T06:59:06;108.20;;;47.58;;
11394;SDS011;5753;54.402;10.220;2023-12-07T07:01:32;128.48;;;58.63;;
11394;SDS011;5753;54.402;10.220;2023-12-07T07:03:58;114.45;;;53.15;;
11394;SDS011;5753;54.402;10.220;2023-12-07T07:06:24;123.43;;;54.30;;
11394;SDS011;5753;54.402;10.220;2023-12-07T07:08:50;116.93;;;49.03;;
11394;SDS011;5753;54.402;10.220;2023-12-07T07:11:16;106.63;;;48.65;;
11394;SDS011;5753;54.402;10.220;2023-12-07T07:13:42;90.20;;;46.03;;
11394;SDS011;5753;54.402;10.220;2023-12-07T07:16:09;101.80;;;53.65;;
11394;SDS011;5753;54.402;10.220;2023-12-07T07:18:37;112.47;;;47.83;;
11394;SDS011;5753;54.402;10.220;2023-12-07T07:21:03;104.15;;;49.20;;
11394;SDS011;5753;54.402;10.220;2023-12-07T07:23:30;113.97;;;61.00;;
11394;SDS011;5753;54.402;10.220;2023-12-07T07:25:56;100.90;;;53.72;;
11394;SDS011;5753;54.402;10.220;2023-12-07T07:28:22;109.55;;;54.45;;
11394;SDS011;5753;54.402;10.220;2023-12-07T07:30:48;108.90;;;57.65;;
11394;SDS011;5753;54.402;10.220;2023-12-07T07:33:16;103.32;;;48.95;;
11394;SDS011;5753;54.402;10.220;2023-12-07T07:35:42;131.77;;;59.70;;
11394;SDS011;5753;54.402;10.220;2023-12-07T07:38:08;132.35;;;57.08;;
11394;SDS011;5753;54.402;10.220;2023-12-07T07:40:35;109.10;;;54.65;;
11394;SDS011;5753;54.402;10.220;2023-12-07T07:43:01;126.95;;;60.97;;
11394;SDS011;5753;54.402;10.220;2023-12-07T07:45:28;121.32;;;60.33;;
11394;SDS011;5753;54.402;10.220;2023-12-07T07:47:54;124.05;;;59.63;;
11394;SDS011;5753;54.402;10.220;2023-12-07T07:50:20;123.90;;;59.10;;
11394;SDS011;5753;54.402;10.220;2023-12-07T07:52:46;118.25;;;51.42;;
11394;SDS011;5753;54.402;10.220;2023-12-07T07:55:12;129.75;;;55.08;;
11394;SDS011;5753;54.402;10.220;2023-12-07T07:57:38;96.90;;;48.58;;
11394;SDS011;5753;54.402;10.220;2023-12-07T08:00:05;131.48;;;58.30;;
11394;SDS011;5753;54.402;10.220;2023-12-07T08:02:33;121.38;;;48.47;;
11394;SDS011;5753;54.402;10.220;2023-12-07T08:05:01;129.43;;;62.17;;
11394;SDS011;5753;54.402;10.220;2023-12-07T08:07:27;122.88;;;57.17;;
11394;SDS011;5753;54.402;10.220;2023-12-07T08:09:53;112.57;;;51.42;;
11394;SDS011;5753;54.402;10.220;2023-12-07T08:12:20;114.97;;;50.13;;
11394;SDS011;5753;54.402;10.220;2023-12-07T08:14:48;86.97;;;43.20;;
11394;SDS011;5753;54.402;10.220;2023-12-07T08:17:14;97.22;;;51.72;;
11394;SDS011;5753;54.402;10.220;2023-12-07T08:19:44;109.43;;;49.42;;
11394;SDS011;5753;54.402;10.220;2023-12-07T08:22:10;104.20;;;49.15;;
11394;SDS011;5753;54.402;10.220;2023-12-07T08:24:38;115.85;;;53.83;;
11394;SDS011;5753;54.402;10.220;2023-12-07T08:27:04;126.28;;;56.00;;
11394;SDS011;5753;54.402;10.220;2023-12-07T08:29:31;109.95;;;49.28;;
11394;SDS011;5753;54.402;10.220;2023-12-07T08:31:57;121.28;;;51.28;;
11394;SDS011;5753;54.402;10.220;2023-12-07T08:34:23;121.28;;;51.92;;
11394;SDS011;5753;54.402;10.220;2023-12-07T08:36:50;113.63;;;49.42;;
11394;SDS011;5753;54.402;10.220;2023-12-07T08:39:18;108.30;;;56.78;;
11394;SDS011;5753;54.402;10.220;2023-12-07T08:41:44;101.05;;;51.10;;
11394;SDS011;5753;54.402;10.220;2023-12-07T08:44:10;114.53;;;47.20;;
11394;SDS011;5753;54.402;10.220;2023-12-07T08:46:36;112.55;;;49.25;;
11394;SDS011;5753;54.402;10.220;2023-12-07T08:49:02;124.35;;;53.05;;
11394;SDS011;5753;54.402;10.220;2023-12-07T08:51:29;127.88;;;62.65;;
11394;SDS011;5753;54.402;10.220;2023-12-07T08:53:55;99.25;;;47.30;;
11394;SDS011;5753;54.402;10.220;2023-12-07T08:56:21;123.38;;;50.63;;
11394;SDS011;5753;54.402;10.220;2023-12-07T08:58:47;114.22;;;55.88;;
11394;SDS011;5753;54.402;10.220;2023-12-07T09:01:14;117.88;;;53.92;;
11394;SDS011;5753;54.402;10.220;2023-12-07T09:03:40;114.32;;;53.47;;
11394;SDS011;5753;54.402;10.220;2023-12-07T09:06:06;99.95;;;50.13;;
11394;SDS011;5753;54.402;10.220;2023-12-07T09:08:33;110.40;;;52.42;;
11394;SDS011;5753;54.402;10.220;2023-12-07T09:10:59;108.93;;;47.47;;
11394;SDS011;5753;54.402;10.220;2023-12-07T09:13:25;107.50;;;51.95;;
11394;SDS011;5753;54.402;10.220;2023-12-07T09:15:53;111.65;;;49.00;;
11394;SDS011;5753;54.402;10.220;2023-12-07T09:18:19;132.13;;;52.35;;
11394;SDS011;5753;54.402;10.220;2023-12-07T09:20:45;142.15;;;54.78;;
11394;SDS011;5753;54.402;10.220;2023-12-07T09:23:11;120.97;;;53.70;;
11394;SDS011;5753;54.402;10.220;2023-12-07T09:25:38;143.68;;;61.25;;
11394;SDS011;5753;54.402;10.220;2023-12-07T09:28:05;114.00;;;50.22;;
11394;SDS011;5753;54.402;10.220;2023-12-07T09:30:32;120.07;;;51.20;;
11394;SDS011;5753;54.402;10.220;2023-12-07T09:32:58;120.47;;;53.50;;
11394;SDS011;5753;54.402;10.220;2023-12-07T09:35:25;118.90;;;46.78;;
11394;SDS011;5753;54.402;10.220;2023-12-07T09:37:51;124.38;;;53.55;;
11394;SDS011;5753;54.402;10.220;2023-12-07T09:40:21;135.02;;;52.95;;
11394;SDS011;5753;54.402;10.220;2023-12-07T09:42:49;120.00;;;52.15;;
11394;SDS011;5753;54.402;10.220;2023-12-07T09:45:16;127.55;;;52.40;;
11394;SDS011;5753;54.402;10.220;2023-12-07T09:47:53;130.02;;;51.22;;
11394;SDS011;5753;54.402;10.220;2023-12-07T09:50:20;125.80;;;52.08;;
11394;SDS011;5753;54.402;10.220;2023-12-07T09:52:49;107.63;;;43.72;;
11394;SDS011;5753;54.402;10.220;2023-12-07T09:55:17;101.90;;;53.03;;
11394;SDS011;5753;54.402;10.220;2023-12-07T09:57:44;119.10;;;50.10;;
11394;SDS011;5753;54.402;10.220;2023-12-07T10:00:13;111.20;;;50.53;;
11394;SDS011;5753;54.402;10.220;2023-12-07T10:02:41;96.82;;;48.50;;
11394;SDS011;5753;54.402;10.220;2023-12-07T10:05:14;105.15;;;48.50;;
11394;SDS011;5753;54.402;10.220;2023-12-07T10:07:44;105.95;;;45.90;;
11394;SDS011;5753;54.402;10.220;2023-12-07T10:10:13;99.80;;;52.65;;
11394;SDS011;5753;54.402;10.220;2023-12-07T10:12:48;118.05;;;55.85;;
11394;SDS011;5753;54.402;10.220;2023-12-07T10:15:17;112.20;;;51.13;;
11394;SDS011;5753;54.402;10.220;2023-12-07T10:20:14;122.78;;;55.90;;
11394;SDS011;5753;54.402;10.220;2023-12-07T10:22:41;118.80;;;53.67;;
11394;SDS011;5753;54.402;10.220;2023-12-07T10:25:07;125.85;;;54.10;;
11394;SDS011;5753;54.402;10.220;2023-12-07T10:27:36;108.80;;;54.72;;
11394;SDS011;5753;54.402;10.220;2023-12-07T10:30:04;120.88;;;52.83;;
11394;SDS011;5753;54.402;10.220;2023-12-07T10:32:31;124.47;;;53.42;;
11394;SDS011;5753;54.402;10.220;2023-12-07T10:35:01;103.38;;;51.90;;
11394;SDS011;5753;54.402;10.220;2023-12-07T10:37:27;115.18;;;51.85;;
11394;SDS011;5753;54.402;10.220;2023-12-07T10:39:54;135.07;;;63.08;;
11394;SDS011;5753;54.402;10.220;2023-12-07T10:42:21;114.55;;;52.47;;
11394;SDS011;5753;54.402;10.220;2023-12-07T10:44:51;116.75;;;56.65;;
11394;SDS011;5753;54.402;10.220;2023-12-07T10:47:22;96.10;;;47.28;;
11394;SDS011;5753;54.402;10.220;2023-12-07T10:49:51;110.35;;;47.50;;
11394;SDS011;5753;54.402;10.220;2023-12-07T10:52:23;96.70;;;46.05;;
11394;SDS011;5753;54.402;10.220;2023-12-07T10:57:46;100.00;;;50.63;;
11394;SDS011;5753;54.402;10.220;2023-12-07T11:00:13;98.97;;;46.53;;
11394;SDS011;5753;54.402;10.220;2023-12-07T11:02:39;90.78;;;46.35;;
11394;SDS011;5753;54.402;10.220;2023-12-07T11:05:06;91.15;;;42.25;;
11394;SDS011;5753;54.402;10.220;2023-12-07T11:07:42;105.88;;;45.33;;
11394;SDS011;5753;54.402;10.220;2023-12-07T11:10:30;104.25;;;47.45;;
11394;SDS011;5753;54.402;10.220;2023-12-07T11:15:59;96.82;;;42.08;;
11394;SDS011;5753;54.402;10.220;2023-12-07T11:18:26;92.22;;;50.20;;
11394;SDS011;5753;54.402;10.220;2023-12-07T11:20:53;90.80;;;42.47;;
11394;SDS011;5753;54.402;10.220;2023-12-07T11:23:20;93.45;;;40.97;;
11394;SDS011;5753;54.402;10.220;2023-12-07T11:25:47;92.95;;;46.88;;
11394;SDS011;5753;54.402;10.220;2023-12-07T11:28:16;87.30;;;50.42;;
11394;SDS011;5753;54.402;10.220;2023-12-07T11:30:43;124.82;;;60.90;;
11394;SDS011;5753;54.402;10.220;2023-12-07T11:33:11;121.25;;;52.85;;
11394;SDS011;5753;54.402;10.220;2023-12-07T11:38:28;112.43;;;52.10;;
11394;SDS011;5753;54.402;10.220;2023-12-07T11:40:54;127.68;;;55.05;;
11394;SDS011;5753;54.402;10.220;2023-12-07T11:46:05;106.57;;;52.72;;
11394;SDS011;5753;54.402;10.220;2023-12-07T11:48:32;98.97;;;45.90;;
11394;SDS011;5753;54.402;10.220;2023-12-07T11:53:32;103.00;;;51.78;;
11394;SDS011;5753;54.402;10.220;2023-12-07T11:56:01;113.10;;;52.28;;
11394;SDS011;5753;54.402;10.220;2023-12-07T11:58:28;118.97;;;51.25;;
11394;SDS011;5753;54.402;10.220;2023-12-07T12:00:56;96.55;;;45.45;;
11394;SDS011;5753;54.402;10.220;2023-12-07T12:03:26;117.18;;;46.22;;
11394;SDS011;5753;54.402;10.220;2023-12-07T12:05:53;96.38;;;42.13;;
11394;SDS011;5753;54.402;10.220;2023-12-07T12:08:20;120.07;;;47.53;;
11394;SDS011;5753;54.402;10.220;2023-12-07T12:10:47;107.25;;;48.50;;
11394;SDS011;5753;54.402;10.220;2023-12-07T12:13:16;101.47;;;44.53;;
11394;SDS011;5753;54.402;10.220;2023-12-07T12:15:43;107.97;;;49.13;;
11394;SDS011;5753;54.402;10.220;2023-12-07T12:18:13;108.60;;;43.63;;
11394;SDS011;5753;54.402;10.220;2023-12-07T12:20:41;109.07;;;49.42;;
11394;SDS011;5753;54.402;10.220;2023-12-07T12:23:09;95.85;;;45.53;;
11394;SDS011;5753;54.402;10.220;2023-12-07T12:25:36;98.90;;;46.35;;
11394;SDS011;5753;54.402;10.220;2023-12-07T12:28:03;85.82;;;41.22;;
11394;SDS011;5753;54.402;10.220;2023-12-07T12:30:30;98.97;;;46.65;;
11394;SDS011;5753;54.402;10.220;2023-12-07T12:32:58;106.45;;;51.42;;
11394;SDS011;5753;54.402;10.220;2023-12-07T12:35:27;98.43;;;42.03;;
11394;SDS011;5753;54.402;10.220;2023-12-07T12:37:54;93.15;;;48.42;;
11394;SDS011;5753;54.402;10.220;2023-12-07T12:40:21;87.78;;;51.13;;
11394;SDS011;5753;54.402;10.220;2023-12-07T12:42:49;83.25;;;45.10;;
11394;SDS011;5753;54.402;10.220;2023-12-07T12:45:17;92.82;;;45.88;;
11394;SDS011;5753;54.402;10.220;2023-12-07T12:47:44;106.68;;;48.50;;
11394;SDS011;5753;54.402;10.220;2023-12-07T12:50:32;124.57;;;54.17;;
11394;SDS011;5753;54.402;10.220;2023-12-07T12:53:07;90.45;;;46.08;;
11394;SDS011;5753;54.402;10.220;2023-12-07T12:55:35;93.65;;;47.33;;
11394;SDS011;5753;54.402;10.220;2023-12-07T12:58:03;72.82;;;42.85;;
11394;SDS011;5753;54.402;10.220;2023-12-07T13:00:32;89.03;;;48.40;;
11394;SDS011;5753;54.402;10.220;2023-12-07T13:02:59;88.13;;;45.60;;
11394;SDS011;5753;54.402;10.220;2023-12-07T13:05:26;78.30;;;48.38;;
11394;SDS011;5753;54.402;10.220;2023-12-07T13:07:52;93.28;;;45.83;;
11394;SDS011;5753;54.402;10.220;2023-12-07T13:10:19;84.88;;;48.83;;
11394;SDS011;5753;54.402;10.220;2023-12-07T13:12:45;102.07;;;47.95;;
11394;SDS011;5753;54.402;10.220;2023-12-07T13:15:12;93.55;;;39.83;;
11394;SDS011;5753;54.402;10.220;2023-12-07T13:17:39;80.65;;;41.42;;
11394;SDS011;5753;54.402;10.220;2023-12-07T13:20:06;87.72;;;44.05;;
11394;SDS011;5753;54.402;10.220;2023-12-07T13:22:35;66.20;;;40.90;;
11394;SDS011;5753;54.402;10.220;2023-12-07T13:25:02;100.10;;;47.38;;
11394;SDS011;5753;54.402;10.220;2023-12-07T13:27:29;71.35;;;42.70;;
11394;SDS011;5753;54.402;10.220;2023-12-07T13:29:56;84.93;;;46.50;;
11394;SDS011;5753;54.402;10.220;2023-12-07T13:32:22;94.05;;;44.35;;
11394;SDS011;5753;54.402;10.220;2023-12-07T13:34:49;77.97;;;39.05;;
11394;SDS011;5753;54.402;10.220;2023-12-07T13:37:15;78.28;;;41.25;;
11394;SDS011;5753;54.402;10.220;2023-12-07T13:39:41;105.60;;;46.00;;
11394;SDS011;5753;54.402;10.220;2023-12-07T13:42:08;98.50;;;47.20;;
11394;SDS011;5753;54.402;10.220;2023-12-07T13:44:35;91.25;;;39.22;;
11394;SDS011;5753;54.402;10.220;2023-12-07T13:47:01;110.90;;;47.40;;
11394;SDS011;5753;54.402;10.220;2023-12-07T13:49:28;89.85;;;39.55;;
11394;SDS011;5753;54.402;10.220;2023-12-07T13:51:54;77.65;;;48.80;;
11394;SDS011;5753;54.402;10.220;2023-12-07T13:54:20;67.85;;;34.90;;
11394;SDS011;5753;54.402;10.220;2023-12-07T13:56:47;81.38;;;42.97;;
11394;SDS011;5753;54.402;10.220;2023-12-07T13:59:13;82.78;;;40.25;;
11394;SDS011;5753;54.402;10.220;2023-12-07T14:01:39;79.20;;;41.75;;
11394;SDS011;5753;54.402;10.220;2023-12-07T14:04:06;83.95;;;47.30;;
11394;SDS011;5753;54.402;10.220;2023-12-07T14:06:32;90.13;;;45.08;;
11394;SDS011;5753;54.402;10.220;2023-12-07T14:09:00;73.43;;;39.20;;
11394;SDS011;5753;54.402;10.220;2023-12-07T14:11:28;78.70;;;36.40;;
11394;SDS011;5753;54.402;10.220;2023-12-07T14:13:54;83.50;;;44.75;;
11394;SDS011;5753;54.402;10.220;2023-12-07T14:16:20;81.35;;;39.63;;
11394;SDS011;5753;54.402;10.220;2023-12-07T14:18:47;75.28;;;40.08;;
11394;SDS011;5753;54.402;10.220;2023-12-07T14:21:13;84.13;;;38.72;;
11394;SDS011;5753;54.402;10.220;2023-12-07T14:23:43;73.13;;;37.35;;
11394;SDS011;5753;54.402;10.220;2023-12-07T14:26:09;69.18;;;38.75;;